createdAt,value
2022-08-28T00:00:29.272Z,1.15
2022-08-28T00:02:59.592Z,1.10
2022-08-28T00:05:28.226Z,2.25
2022-08-28T00:07:55.606Z,1.13
2022-08-28T00:10:24.244Z,1.60
2022-08-28T00:12:56.783Z,1.50
2022-08-28T00:15:40.585Z,1.17
2022-08-28T00:18:10.904Z,1.10
2022-08-28T00:20:49.742Z,1.33
2022-08-28T00:23:17.111Z,2.47
2022-08-28T00:25:44.424Z,0.98
2022-08-28T00:28:23.786Z,1.30
2022-08-28T00:30:55.058Z,1.00
2022-08-28T00:33:28.129Z,1.80
2022-08-28T00:36:00.509Z,1.35
2022-08-28T00:38:27.921Z,1.15
2022-08-28T00:40:57.307Z,1.15
2022-08-28T00:43:40.861Z,1.00
2022-08-28T00:46:20.730Z,1.33
2022-08-28T00:48:51.093Z,2.03
2022-08-28T00:51:41.124Z,1.23
2022-08-28T00:54:12.265Z,1.65
2022-08-28T00:56:42.539Z,1.33
2022-08-28T01:02:03.597Z,1.08
2022-08-28T01:04:32.569Z,1.35
2022-08-28T01:07:00.703Z,1.20
2022-08-28T01:09:29.133Z,2.05
2022-08-28T01:12:03.589Z,1.60
2022-08-28T01:14:31.514Z,1.30
2022-08-28T01:17:02.624Z,1.38
2022-08-28T01:19:40.750Z,1.50
2022-08-28T01:22:28.623Z,1.50
2022-08-28T01:25:10.127Z,1.85
2022-08-28T01:27:37.487Z,1.40
2022-08-28T01:30:07.513Z,1.67
2022-08-28T01:32:40.647Z,1.25
2022-08-28T01:35:12.124Z,1.60
2022-08-28T01:37:53.431Z,1.50
2022-08-28T01:40:36.611Z,1.42
2022-08-28T01:43:20.087Z,1.77
2022-08-28T01:45:57.286Z,1.40
2022-08-28T01:48:30.115Z,1.48
2022-08-28T01:51:03.105Z,1.97
2022-08-28T01:53:34.212Z,1.70
2022-08-28T01:56:04.917Z,1.73
2022-08-28T01:58:52.769Z,1.95
2022-08-28T02:01:27.973Z,1.40
2022-08-28T02:03:55.403Z,1.55
2022-08-28T02:06:25.449Z,1.63
2022-08-28T02:08:55.939Z,1.45
2022-08-28T02:11:32.972Z,1.63
2022-08-28T02:14:03.019Z,1.02
2022-08-28T02:16:32.164Z,2.05
2022-08-28T02:19:06.378Z,1.52
2022-08-28T02:21:35.950Z,1.37
2022-08-28T02:24:09.721Z,1.55
2022-08-28T02:26:37.060Z,1.67
2022-08-28T02:31:51.610Z,1.25
2022-08-28T02:34:20.945Z,1.52
2022-08-28T02:36:57.394Z,1.80
2022-08-28T02:39:33.126Z,1.45
2022-08-28T02:42:03.431Z,1.38
2022-08-28T02:44:33.772Z,1.73
2022-08-28T02:47:03.596Z,1.20
2022-08-28T02:49:47.392Z,1.40
2022-08-28T02:54:53.608Z,1.35
2022-08-28T02:57:23.340Z,1.85
2022-08-28T02:59:59.025Z,1.88
2022-08-28T03:02:30.474Z,1.58
2022-08-28T03:05:02.806Z,1.27
2022-08-28T03:07:32.407Z,1.30
2022-08-28T03:09:59.685Z,1.73
2022-08-28T03:12:29.581Z,1.40
2022-08-28T03:14:57.061Z,1.20
2022-08-28T03:17:24.628Z,1.30
2022-08-28T03:19:52.284Z,1.67
2022-08-28T03:22:46.576Z,1.25
2022-08-28T03:27:53.977Z,1.23
2022-08-28T03:30:25.773Z,1.48
2022-08-28T03:32:56.990Z,1.30
2022-08-28T03:35:34.490Z,1.33
2022-08-28T03:38:06.001Z,1.42
2022-08-28T03:40:37.458Z,1.20
2022-08-28T03:43:19.201Z,1.35
2022-08-28T03:46:03.542Z,1.00
2022-08-28T03:48:35.856Z,1.00
2022-08-28T03:51:09.224Z,1.10
2022-08-28T03:53:39.100Z,1.27
2022-08-28T03:56:09.671Z,1.25
2022-08-28T03:58:39.522Z,1.30
2022-08-28T04:01:12.603Z,1.33
2022-08-28T04:03:39.844Z,1.27
2022-08-28T04:06:07.771Z,1.48
2022-08-28T04:08:38.429Z,0.93
2022-08-28T04:11:06.033Z,1.10
2022-08-28T04:13:43.513Z,1.45
2022-08-28T04:16:17.988Z,1.10
2022-08-28T04:18:52.342Z,1.50
2022-08-28T04:21:21.550Z,1.23
2022-08-28T04:23:52.210Z,1.25
2022-08-28T04:26:23.528Z,1.45
2022-08-28T04:28:52.701Z,1.20
2022-08-28T04:31:31.819Z,1.10
2022-08-28T04:34:09.672Z,1.30
2022-08-28T04:36:40.033Z,1.00
2022-08-28T04:39:14.071Z,1.35
2022-08-28T04:41:46.781Z,1.15
2022-08-28T04:44:25.525Z,1.50
2022-08-28T04:47:06.365Z,2.08
2022-08-28T04:49:38.001Z,0.98
2022-08-28T04:52:09.733Z,1.40
2022-08-28T04:54:37.208Z,1.15
2022-08-28T04:57:08.368Z,1.02
2022-08-28T04:59:36.661Z,1.27
2022-08-28T05:02:03.939Z,1.20
2022-08-28T05:04:32.756Z,0.95
2022-08-28T05:07:09.405Z,1.60
2022-08-28T05:09:36.715Z,1.02
2022-08-28T05:12:07.603Z,1.45
2022-08-28T05:14:40.127Z,1.30
2022-08-28T05:17:11.373Z,1.38
2022-08-28T05:19:38.528Z,1.40
2022-08-28T05:22:07.105Z,0.85
2022-08-28T05:24:34.933Z,1.00
2022-08-28T05:27:06.942Z,1.08
2022-08-28T05:29:34.378Z,0.95
2022-08-28T05:32:01.563Z,1.25
2022-08-28T05:34:32.358Z,1.15
2022-08-28T05:37:01.695Z,1.50
2022-08-28T05:39:42.810Z,0.93
2022-08-28T05:42:09.805Z,1.02
2022-08-28T05:44:44.587Z,1.02
2022-08-28T05:47:16.919Z,1.10
2022-08-28T05:49:56.582Z,1.48
2022-08-28T05:52:23.868Z,1.08
2022-08-28T05:54:53.669Z,1.30
2022-08-28T05:57:23.254Z,1.27
2022-08-28T05:59:54.993Z,1.27
2022-08-28T06:02:22.238Z,1.40
2022-08-28T06:04:50.428Z,1.20
2022-08-28T06:07:17.682Z,0.98
2022-08-28T06:09:46.749Z,1.10
2022-08-28T06:12:14.164Z,0.95
2022-08-28T06:14:41.709Z,1.35
2022-08-28T06:17:08.970Z,1.30
2022-08-28T06:19:41.358Z,0.80
2022-08-28T06:22:10.812Z,1.08
2022-08-28T06:24:40.928Z,1.23
2022-08-28T06:27:10.938Z,0.93
2022-08-28T06:30:03.995Z,1.23
2022-08-28T06:32:34.150Z,0.93
2022-08-28T06:35:08.750Z,1.40
2022-08-28T06:37:37.616Z,1.40
2022-08-28T06:40:05.170Z,1.38
2022-08-28T06:42:32.434Z,1.85
2022-08-28T06:44:59.703Z,1.40
2022-08-28T06:47:29.887Z,1.35
2022-08-28T06:49:57.014Z,1.60
2022-08-28T06:52:24.111Z,0.95
2022-08-28T06:54:55.954Z,1.55
2022-08-28T06:57:24.018Z,1.15
2022-08-28T06:59:51.012Z,1.15
2022-08-28T07:02:19.159Z,1.00
2022-08-28T07:04:50.672Z,1.25
2022-08-28T07:07:32.534Z,1.08
2022-08-28T07:09:59.773Z,0.90
2022-08-28T07:12:26.770Z,1.00
2022-08-28T07:14:53.716Z,0.70
2022-08-28T07:17:20.798Z,1.00
2022-08-28T07:19:47.854Z,1.10
2022-08-28T07:22:14.893Z,0.88
2022-08-28T07:24:41.954Z,1.20
2022-08-28T07:27:09.261Z,1.02
2022-08-28T07:29:36.392Z,0.82
2022-08-28T07:32:04.206Z,1.23
2022-08-28T07:34:31.216Z,1.20
2022-08-28T07:37:04.365Z,1.17
2022-08-28T07:39:31.428Z,1.05
2022-08-28T07:41:58.565Z,0.70
2022-08-28T07:44:43.815Z,1.30
2022-08-28T07:47:12.052Z,0.85
2022-08-28T07:49:41.960Z,0.80
2022-08-28T07:59:10.840Z,0.70
2022-08-28T08:01:43.171Z,1.10
2022-08-28T08:04:41.796Z,0.70
2022-08-28T08:07:17.408Z,0.70
2022-08-28T08:09:53.501Z,0.75
2022-08-28T08:13:09.670Z,0.98
2022-08-28T08:15:36.873Z,0.77
2022-08-28T08:18:04.144Z,0.60
2022-08-28T08:20:31.294Z,0.80
2022-08-28T08:22:58.500Z,1.48
2022-08-28T08:25:25.653Z,1.00
2022-08-28T08:27:55.715Z,1.60
2022-08-28T08:32:09.418Z,0.90
2022-08-28T08:33:22.380Z,0.52
2022-08-28T08:35:50.354Z,1.08
2022-08-28T08:38:23.322Z,0.63
2022-08-28T08:40:59.482Z,0.90
2022-08-28T08:43:27.698Z,0.85
2022-08-28T08:45:54.800Z,0.70
2022-08-28T08:48:41.224Z,0.70
2022-08-28T08:51:21.648Z,0.73
2022-08-28T08:54:03.784Z,0.50
2022-08-28T08:56:34.848Z,1.02
2022-08-28T08:59:02.388Z,0.65
2022-08-28T09:01:55.541Z,0.50
2022-08-28T09:04:40.722Z,0.50
2022-08-28T09:07:25.224Z,0.88
2022-08-28T09:09:58.424Z,1.00
2022-08-28T09:12:30.993Z,0.70
2022-08-28T09:15:05.805Z,0.88
2022-08-28T09:17:36.280Z,0.52
2022-08-28T09:20:05.036Z,0.60
2022-08-28T09:22:35.466Z,0.80
2022-08-28T09:25:06.724Z,0.70
2022-08-28T09:27:45.948Z,0.90
2022-08-28T09:30:15.366Z,0.77
2022-08-28T09:32:50.552Z,0.70
2022-08-28T09:35:40.636Z,1.20
2022-08-28T09:38:27.555Z,0.70
2022-08-28T09:41:43.751Z,0.50
2022-08-28T09:44:17.766Z,0.30
2022-08-28T09:46:51.534Z,0.98
2022-08-28T09:49:31.458Z,0.80
2022-08-28T09:52:05.222Z,0.70
2022-08-28T09:54:38.329Z,0.40
2022-08-28T09:57:05.601Z,0.52
2022-08-28T09:59:34.660Z,0.50
2022-08-28T10:02:24.373Z,0.50
2022-08-28T10:05:12.955Z,0.60
2022-08-28T10:07:50.824Z,0.43
2022-08-28T10:10:31.906Z,0.30
2022-08-28T10:13:29.860Z,0.57
2022-08-28T10:16:10.067Z,0.50
2022-08-28T10:19:01.584Z,0.40
2022-08-28T10:21:49.422Z,0.73
2022-08-28T10:24:38.652Z,0.45
2022-08-28T10:27:05.771Z,0.60
2022-08-28T10:30:12.377Z,0.40
2022-08-28T10:32:51.097Z,0.70
2022-08-28T10:35:31.185Z,0.52
2022-08-28T10:38:09.354Z,0.70
2022-08-28T10:40:40.404Z,0.57
2022-08-28T10:43:18.383Z,0.45
2022-08-28T10:45:45.384Z,0.57
2022-08-28T10:48:25.420Z,0.47
2022-08-28T10:51:02.300Z,0.30
2022-08-28T10:53:39.212Z,0.40
2022-08-28T10:56:13.578Z,0.38
2022-08-28T10:58:44.768Z,0.40
2022-08-28T11:01:19.850Z,0.40
2022-08-28T11:03:50.791Z,0.50
2022-08-28T11:06:41.384Z,0.40
2022-08-28T11:09:25.821Z,0.40
2022-08-28T11:12:20.048Z,0.35
2022-08-28T11:14:51.242Z,0.60
2022-08-28T11:17:30.556Z,0.57
2022-08-28T11:20:10.612Z,0.60
2022-08-28T11:22:40.538Z,0.50
2022-08-28T11:25:09.780Z,0.52
2022-08-28T11:27:37.749Z,0.47
2022-08-28T11:30:17.418Z,0.50
2022-08-28T11:32:57.493Z,0.50
2022-08-28T11:39:55.384Z,0.85
2022-08-28T11:42:55.678Z,0.90
2022-08-28T11:53:45.957Z,0.40
2022-08-28T11:56:30.580Z,0.50
2022-08-28T11:59:24.539Z,0.65
2022-08-28T12:01:58.452Z,0.30
2022-08-28T12:04:30.149Z,0.43
2022-08-28T12:07:18.598Z,0.40
2022-08-28T12:09:47.702Z,0.32
2022-08-28T12:12:28.102Z,0.43
2022-08-28T12:15:00.798Z,0.50
2022-08-28T12:17:39.564Z,0.30
2022-08-28T12:20:24.056Z,0.40
2022-08-28T12:22:53.580Z,0.40
2022-08-28T12:25:44.310Z,0.40
2022-08-28T12:28:20.466Z,0.55
2022-08-28T12:30:58.601Z,0.60
2022-08-28T12:33:35.625Z,0.43
2022-08-28T12:36:03.470Z,0.57
2022-08-28T12:38:31.843Z,0.40
2022-08-28T12:40:58.962Z,0.52
2022-08-28T12:43:44.309Z,0.50
2022-08-28T12:46:19.662Z,0.73
2022-08-28T12:49:00.758Z,0.35
2022-08-28T12:51:29.833Z,0.30
2022-08-28T12:53:59.368Z,0.40
2022-08-28T12:56:30.183Z,0.65
2022-08-28T12:58:57.206Z,1.27
2022-08-28T13:01:31.806Z,0.38
2022-08-28T13:04:01.470Z,0.20
2022-08-28T13:06:29.513Z,0.30
2022-08-28T13:09:03.942Z,0.40
2022-08-28T13:11:37.085Z,0.45
2022-08-28T13:14:04.884Z,0.30
2022-08-28T13:16:50.142Z,0.38
2022-08-28T13:19:31.197Z,0.30
2022-08-28T13:22:06.282Z,0.30
2022-08-28T13:24:42.437Z,0.40
2022-08-28T13:27:20.964Z,0.40
2022-08-28T13:30:08.422Z,0.30
2022-08-28T13:32:39.131Z,0.32
2022-08-28T13:35:13.742Z,0.30
2022-08-28T13:37:51.220Z,0.40
2022-08-28T13:43:11.112Z,0.30
2022-08-28T13:45:43.442Z,0.50
2022-08-28T13:48:24.297Z,0.30
2022-08-28T13:50:59.560Z,0.32
2022-08-28T13:53:26.518Z,0.40
2022-08-28T13:55:53.505Z,0.63
2022-08-28T13:58:20.504Z,0.50
2022-08-28T14:00:48.931Z,0.30
2022-08-28T14:03:34.563Z,0.43
2022-08-28T14:07:01.800Z,0.30
2022-08-28T14:09:28.820Z,0.55
2022-08-28T14:15:36.707Z,0.35
2022-08-28T14:18:03.669Z,0.35
2022-08-28T14:20:31.418Z,0.68
2022-08-28T14:23:39.881Z,0.28
2022-08-28T14:26:06.857Z,0.20
2022-08-28T14:28:33.973Z,0.50
2022-08-28T14:31:14.403Z,0.30
2022-08-28T14:33:48.413Z,0.32
2022-08-28T14:36:26.492Z,0.45
2022-08-28T14:38:57.320Z,0.60
2022-08-28T14:41:25.213Z,0.50
2022-08-28T14:43:52.395Z,0.85
2022-08-28T14:46:24.252Z,0.50
2022-08-28T14:48:51.827Z,0.40
2022-08-28T14:51:18.836Z,0.60
2022-08-28T14:53:45.786Z,0.52
2022-08-28T14:56:13.206Z,0.32
2022-08-28T14:58:40.352Z,0.30
2022-08-28T15:01:10.597Z,0.20
2022-08-28T15:03:37.928Z,0.30
2022-08-28T15:06:10.707Z,0.25
2022-08-28T15:08:37.962Z,0.40
2022-08-28T15:11:18.319Z,0.40
2022-08-28T15:13:46.778Z,0.45
2022-08-28T15:16:18.984Z,0.40
2022-08-28T15:18:46.269Z,0.55
2022-08-28T15:21:23.640Z,0.55
2022-08-28T15:23:51.577Z,0.47
2022-08-28T15:26:19.398Z,0.50
2022-08-28T15:28:51.155Z,0.43
2022-08-28T15:31:18.489Z,0.50
2022-08-28T15:33:45.775Z,0.60
2022-08-28T15:36:13.358Z,0.20
2022-08-28T15:38:59.176Z,0.40
2022-08-28T15:41:26.403Z,0.47
2022-08-28T15:43:54.094Z,0.55
2022-08-28T15:46:24.598Z,0.40
2022-08-28T15:48:54.704Z,0.40
2022-08-28T15:51:26.006Z,0.40
2022-08-28T15:53:54.958Z,1.25
2022-08-28T15:56:25.244Z,0.70
2022-08-28T15:59:04.386Z,0.30
2022-08-28T16:01:34.273Z,0.20
2022-08-28T16:04:05.921Z,0.20
2022-08-28T16:06:34.477Z,0.28
2022-08-28T16:09:01.699Z,0.22
2022-08-28T16:11:32.295Z,0.30
2022-08-28T16:14:04.791Z,0.30
2022-08-28T16:16:32.706Z,0.40
2022-08-28T16:19:00.892Z,0.60
2022-08-28T16:21:28.232Z,0.30
2022-08-28T16:24:06.546Z,0.40
2022-08-28T16:26:34.854Z,0.30
2022-08-28T16:29:07.423Z,0.63
2022-08-28T16:31:36.091Z,0.30
2022-08-28T16:34:03.315Z,0.30
2022-08-28T16:36:31.168Z,0.38
2022-08-28T16:39:03.597Z,0.30
2022-08-28T16:41:32.452Z,0.60
2022-08-28T16:44:05.539Z,0.20
2022-08-28T16:46:32.804Z,0.47
2022-08-28T16:49:00.043Z,0.75
2022-08-28T16:51:27.217Z,0.40
2022-08-28T16:53:54.671Z,0.60
2022-08-28T16:56:23.889Z,0.55
2022-08-28T16:58:53.089Z,0.28
2022-08-28T17:01:24.222Z,0.32
2022-08-28T17:03:52.679Z,0.73
2022-08-28T17:06:23.602Z,0.43
2022-08-28T17:08:55.875Z,0.40
2022-08-28T17:11:26.681Z,0.40
2022-08-28T17:13:56.224Z,0.43
2022-08-28T17:16:24.156Z,0.40
2022-08-28T17:18:53.857Z,0.50
2022-08-28T17:21:52.519Z,0.40
2022-08-28T17:24:19.589Z,0.40
2022-08-28T17:30:37.546Z,0.40
2022-08-28T17:33:07.227Z,0.30
2022-08-28T17:35:38.544Z,0.60
2022-08-28T17:38:11.591Z,0.50
2022-08-28T17:40:41.181Z,0.30
2022-08-28T17:43:08.519Z,0.43
2022-08-28T17:45:35.515Z,0.20
2022-08-28T17:48:02.726Z,0.40
2022-08-28T17:50:29.751Z,0.47
2022-08-28T17:52:56.707Z,0.43
2022-08-28T17:55:23.709Z,0.50
2022-08-28T17:57:50.906Z,0.60
2022-08-28T18:00:21.264Z,0.40
2022-08-28T18:05:41.464Z,1.20
2022-08-28T18:08:09.019Z,0.50
2022-08-28T18:10:36.098Z,0.38
2022-08-28T18:13:04.296Z,0.50
2022-08-28T18:15:34.528Z,0.57
2022-08-28T18:18:36.221Z,0.53
2022-08-28T18:21:03.930Z,0.40
2022-08-28T18:23:30.978Z,0.50
2022-08-28T18:26:00.588Z,0.40
2022-08-28T18:28:33.650Z,0.60
2022-08-28T18:31:01.315Z,0.30
2022-08-28T18:35:15.078Z,0.50
2022-08-28T18:37:20.600Z,0.55
2022-08-28T18:39:47.595Z,0.35
2022-08-28T18:57:23.974Z,0.50
2022-08-28T19:00:04.046Z,0.40
2022-08-28T19:03:24.113Z,0.70
2022-08-28T19:06:22.080Z,0.50
2022-08-28T19:24:07.117Z,0.55
2022-08-28T19:27:13.916Z,0.50
2022-08-28T19:36:46.023Z,0.82
2022-08-28T19:39:40.252Z,1.08
2022-08-28T19:42:39.814Z,0.80
2022-08-28T19:45:33.600Z,0.30
2022-08-28T21:26:27.477Z,0.57
2022-08-28T21:28:54.568Z,0.55
2022-08-28T21:31:21.712Z,1.02
2022-08-28T21:33:48.909Z,0.60
2022-08-28T21:36:16.757Z,0.65
2022-08-28T21:38:43.810Z,0.95
2022-08-28T21:41:14.835Z,0.70
2022-08-28T21:43:45.820Z,0.70
2022-08-28T21:46:14.179Z,0.80
2022-08-28T21:48:41.534Z,1.00
2022-08-28T21:51:12.787Z,0.88
2022-08-28T21:53:40.517Z,0.80
2022-08-28T21:56:07.610Z,1.08
2022-08-28T21:58:36.147Z,0.73
2022-08-28T22:01:03.295Z,0.80
2022-08-28T22:03:33.752Z,0.90
2022-08-28T22:06:00.951Z,1.05
2022-08-28T22:08:28.820Z,1.00
2022-08-28T22:10:56.418Z,0.55
2022-08-28T22:13:26.167Z,1.00
2022-08-28T22:15:55.782Z,0.80
2022-08-28T22:18:23.211Z,0.75
2022-08-28T22:21:20.490Z,1.15
2022-08-28T22:23:47.765Z,1.08
2022-08-28T22:26:17.728Z,0.68
2022-08-28T22:28:44.784Z,1.00
2022-08-28T22:31:14.218Z,0.70
2022-08-28T22:33:42.558Z,0.88
2022-08-28T22:36:13.836Z,0.95
2022-08-28T22:38:41.370Z,0.98
2022-08-28T22:41:55.856Z,0.85
2022-08-28T22:44:36.728Z,1.63
2022-08-28T22:47:18.903Z,0.60
2022-08-28T22:50:21.007Z,0.93
2022-08-28T22:53:02.287Z,0.98
2022-08-28T22:55:43.368Z,0.80
2022-08-28T22:58:57.935Z,1.27
2022-08-28T23:01:27.835Z,0.70
2022-08-28T23:04:01.705Z,0.73
2022-08-28T23:06:32.166Z,0.95
2022-08-28T23:08:59.274Z,0.70
2022-08-28T23:11:26.299Z,0.80
2022-08-28T23:13:53.422Z,0.80
2022-08-28T23:16:25.264Z,0.63
2022-08-28T23:19:09.262Z,0.82
2022-08-28T23:21:43.418Z,0.73
2022-08-28T23:24:11.782Z,1.25
2022-08-28T23:26:38.868Z,0.80
2022-08-28T23:29:05.884Z,0.90
2022-08-28T23:31:32.981Z,0.80
2022-08-28T23:34:00.397Z,0.95
2022-08-28T23:36:27.445Z,0.95
2022-08-28T23:38:54.485Z,0.60
2022-08-28T23:41:21.437Z,0.85
2022-08-28T23:43:49.209Z,0.63
2022-08-28T23:46:17.249Z,0.68
2022-08-28T23:48:45.186Z,0.93
2022-08-28T23:51:12.959Z,0.77
2022-08-28T23:53:41.034Z,0.70
2022-08-28T23:56:08.686Z,0.77
2022-08-28T23:58:35.919Z,0.60
